sensor_id;sensor_type;location;lat;lon;timestamp;P1;durP1;ratioP1;P2;durP2;ratioP2
59239;SDS011;45010;53.640;10.578;2022-09-13T00:00:44;2.47;;;1.00;;
59239;SDS011;45010;53.640;10.578;2022-09-13T00:03:45;1.45;;;1.05;;
59239;SDS011;45010;53.640;10.578;2022-09-13T00:06:45;1.20;;;1.10;;
59239;SDS011;45010;53.640;10.578;2022-09-13T00:09:45;1.73;;;1.25;;
59239;SDS011;45010;53.640;10.578;2022-09-13T00:12:46;1.42;;;1.20;;
59239;SDS011;45010;53.640;10.578;2022-09-13T00:15:48;2.05;;;1.20;;
59239;SDS011;45010;53.640;10.578;2022-09-13T00:18:49;1.58;;;1.25;;
59239;SDS011;45010;53.640;10.578;2022-09-13T00:21:50;1.20;;;1.05;;
59239;SDS011;45010;53.640;10.578;2022-09-13T00:24:50;1.70;;;1.20;;
59239;SDS011;45010;53.640;10.578;2022-09-13T00:27:51;1.35;;;0.93;;
59239;SDS011;45010;53.640;10.578;2022-09-13T00:30:51;1.23;;;0.80;;
59239;SDS011;45010;53.640;10.578;2022-09-13T00:33:52;1.00;;;0.93;;
59239;SDS011;45010;53.640;10.578;2022-09-13T00:36:53;2.25;;;0.85;;
59239;SDS011;45010;53.640;10.578;2022-09-13T00:39:53;1.40;;;1.13;;
59239;SDS011;45010;53.640;10.578;2022-09-13T00:42:53;1.02;;;1.02;;
59239;SDS011;45010;53.640;10.578;2022-09-13T00:45:53;1.55;;;1.02;;
59239;SDS011;45010;53.640;10.578;2022-09-13T00:48:55;1.75;;;1.10;;
59239;SDS011;45010;53.640;10.578;2022-09-13T00:52:24;1.40;;;1.27;;
59239;SDS011;45010;53.640;10.578;2022-09-13T00:55:30;1.80;;;1.00;;
59239;SDS011;45010;53.640;10.578;2022-09-13T00:58:38;1.70;;;1.30;;
59239;SDS011;45010;53.640;10.578;2022-09-13T01:01:44;1.30;;;1.00;;
59239;SDS011;45010;53.640;10.578;2022-09-13T01:04:48;1.23;;;1.05;;
59239;SDS011;45010;53.640;10.578;2022-09-13T01:07:49;1.45;;;1.23;;
59239;SDS011;45010;53.640;10.578;2022-09-13T01:10:50;2.78;;;1.13;;
59239;SDS011;45010;53.640;10.578;2022-09-13T01:13:51;2.47;;;1.65;;
59239;SDS011;45010;53.640;10.578;2022-09-13T01:16:53;1.95;;;0.82;;
59239;SDS011;45010;53.640;10.578;2022-09-13T01:19:54;0.90;;;0.90;;
59239;SDS011;45010;53.640;10.578;2022-09-13T01:23:12;1.48;;;1.10;;
59239;SDS011;45010;53.640;10.578;2022-09-13T01:43:39;1.45;;;1.08;;
59239;SDS011;45010;53.640;10.578;2022-09-13T01:50:21;1.40;;;0.90;;
59239;SDS011;45010;53.640;10.578;2022-09-13T01:53:41;1.00;;;0.90;;
59239;SDS011;45010;53.640;10.578;2022-09-13T02:00:07;1.20;;;0.90;;
59239;SDS011;45010;53.640;10.578;2022-09-13T02:03:13;1.20;;;0.80;;
59239;SDS011;45010;53.640;10.578;2022-09-13T02:06:19;1.85;;;0.98;;
59239;SDS011;45010;53.640;10.578;2022-09-13T02:09:22;1.52;;;1.20;;
59239;SDS011;45010;53.640;10.578;2022-09-13T02:12:25;1.77;;;0.90;;
59239;SDS011;45010;53.640;10.578;2022-09-13T02:15:31;1.13;;;1.02;;
59239;SDS011;45010;53.640;10.578;2022-09-13T02:18:37;1.10;;;0.90;;
59239;SDS011;45010;53.640;10.578;2022-09-13T02:21:40;1.30;;;0.98;;
59239;SDS011;45010;53.640;10.578;2022-09-13T02:24:45;1.30;;;0.85;;
59239;SDS011;45010;53.640;10.578;2022-09-13T02:27:51;1.05;;;0.90;;
59239;SDS011;45010;53.640;10.578;2022-09-13T02:30:57;0.95;;;0.88;;
59239;SDS011;45010;53.640;10.578;2022-09-13T02:34:02;1.48;;;1.02;;
59239;SDS011;45010;53.640;10.578;2022-09-13T02:37:07;1.98;;;1.05;;
59239;SDS011;45010;53.640;10.578;2022-09-13T02:40:11;1.38;;;1.00;;
59239;SDS011;45010;53.640;10.578;2022-09-13T02:43:17;1.42;;;1.10;;
59239;SDS011;45010;53.640;10.578;2022-09-13T02:46:40;0.88;;;0.88;;
59239;SDS011;45010;53.640;10.578;2022-09-13T02:53:24;1.77;;;1.20;;
59239;SDS011;45010;53.640;10.578;2022-09-13T02:59:44;1.17;;;1.00;;
59239;SDS011;45010;53.640;10.578;2022-09-13T03:02:45;1.38;;;0.93;;
59239;SDS011;45010;53.640;10.578;2022-09-13T03:05:49;1.10;;;0.90;;
59239;SDS011;45010;53.640;10.578;2022-09-13T03:08:49;1.30;;;1.20;;
59239;SDS011;45010;53.640;10.578;2022-09-13T03:11:55;0.80;;;0.80;;
59239;SDS011;45010;53.640;10.578;2022-09-13T03:22:02;0.98;;;0.90;;
59239;SDS011;45010;53.640;10.578;2022-09-13T03:25:29;1.30;;;0.98;;
59239;SDS011;45010;53.640;10.578;2022-09-13T03:28:51;1.08;;;0.98;;
59239;SDS011;45010;53.640;10.578;2022-09-13T03:32:03;1.40;;;0.90;;
59239;SDS011;45010;53.640;10.578;2022-09-13T03:35:28;1.20;;;1.10;;
59239;SDS011;45010;53.640;10.578;2022-09-13T03:38:37;1.73;;;1.00;;
59239;SDS011;45010;53.640;10.578;2022-09-13T03:41:46;1.10;;;1.00;;
59239;SDS011;45010;53.640;10.578;2022-09-13T03:44:51;1.20;;;1.10;;
59239;SDS011;45010;53.640;10.578;2022-09-13T03:47:56;1.70;;;0.90;;
59239;SDS011;45010;53.640;10.578;2022-09-13T03:50:57;1.02;;;1.00;;
59239;SDS011;45010;53.640;10.578;2022-09-13T03:53:58;1.05;;;0.95;;
59239;SDS011;45010;53.640;10.578;2022-09-13T03:57:09;1.00;;;0.90;;
59239;SDS011;45010;53.640;10.578;2022-09-13T04:00:14;1.70;;;0.90;;
59239;SDS011;45010;53.640;10.578;2022-09-13T04:03:17;1.25;;;1.08;;
59239;SDS011;45010;53.640;10.578;2022-09-13T04:06:17;1.30;;;1.20;;
59239;SDS011;45010;53.640;10.578;2022-09-13T04:09:17;1.63;;;1.42;;
59239;SDS011;45010;53.640;10.578;2022-09-13T04:12:18;1.50;;;1.27;;
59239;SDS011;45010;53.640;10.578;2022-09-13T04:15:18;0.80;;;0.80;;
59239;SDS011;45010;53.640;10.578;2022-09-13T04:18:18;1.55;;;1.10;;
59239;SDS011;45010;53.640;10.578;2022-09-13T04:21:19;1.50;;;1.00;;
59239;SDS011;45010;53.640;10.578;2022-09-13T04:24:22;1.08;;;1.00;;
59239;SDS011;45010;53.640;10.578;2022-09-13T04:27:24;1.23;;;1.13;;
59239;SDS011;45010;53.640;10.578;2022-09-13T04:30:25;1.17;;;1.08;;
59239;SDS011;45010;53.640;10.578;2022-09-13T04:33:26;1.17;;;1.00;;
59239;SDS011;45010;53.640;10.578;2022-09-13T04:36:27;1.13;;;1.02;;
59239;SDS011;45010;53.640;10.578;2022-09-13T04:39:27;1.20;;;1.10;;
59239;SDS011;45010;53.640;10.578;2022-09-13T04:42:27;0.88;;;0.88;;
59239;SDS011;45010;53.640;10.578;2022-09-13T04:45:28;1.30;;;1.20;;
59239;SDS011;45010;53.640;10.578;2022-09-13T04:48:28;1.33;;;1.20;;
59239;SDS011;45010;53.640;10.578;2022-09-13T04:51:29;1.20;;;1.10;;
59239;SDS011;45010;53.640;10.578;2022-09-13T04:54:29;1.00;;;0.90;;
59239;SDS011;45010;53.640;10.578;2022-09-13T04:57:30;1.40;;;1.30;;
59239;SDS011;45010;53.640;10.578;2022-09-13T05:00:31;1.13;;;1.02;;
59239;SDS011;45010;53.640;10.578;2022-09-13T05:03:32;1.55;;;1.10;;
59239;SDS011;45010;53.640;10.578;2022-09-13T05:06:33;1.05;;;0.95;;
59239;SDS011;45010;53.640;10.578;2022-09-13T05:09:34;1.33;;;1.10;;
59239;SDS011;45010;53.640;10.578;2022-09-13T05:12:34;1.30;;;1.20;;
59239;SDS011;45010;53.640;10.578;2022-09-13T05:15:34;1.00;;;0.90;;
59239;SDS011;45010;53.640;10.578;2022-09-13T05:18:35;1.65;;;1.40;;
59239;SDS011;45010;53.640;10.578;2022-09-13T05:21:35;1.10;;;1.00;;
59239;SDS011;45010;53.640;10.578;2022-09-13T05:24:36;1.60;;;1.20;;
59239;SDS011;45010;53.640;10.578;2022-09-13T05:27:36;1.48;;;1.20;;
59239;SDS011;45010;53.640;10.578;2022-09-13T05:30:36;1.20;;;1.08;;
59239;SDS011;45010;53.640;10.578;2022-09-13T05:33:37;1.10;;;1.00;;
59239;SDS011;45010;53.640;10.578;2022-09-13T05:36:37;1.42;;;1.15;;
59239;SDS011;45010;53.640;10.578;2022-09-13T05:39:38;1.23;;;1.02;;
59239;SDS011;45010;53.640;10.578;2022-09-13T05:42:38;1.30;;;1.20;;
59239;SDS011;45010;53.640;10.578;2022-09-13T05:45:39;1.90;;;1.35;;
59239;SDS011;45010;53.640;10.578;2022-09-13T05:48:40;1.45;;;1.20;;
59239;SDS011;45010;53.640;10.578;2022-09-13T05:51:41;1.05;;;1.05;;
59239;SDS011;45010;53.640;10.578;2022-09-13T05:54:42;1.27;;;1.10;;
59239;SDS011;45010;53.640;10.578;2022-09-13T05:57:42;1.40;;;1.30;;
59239;SDS011;45010;53.640;10.578;2022-09-13T06:00:42;1.33;;;1.23;;
59239;SDS011;45010;53.640;10.578;2022-09-13T06:03:45;1.38;;;1.25;;
59239;SDS011;45010;53.640;10.578;2022-09-13T06:06:49;1.10;;;1.00;;
59239;SDS011;45010;53.640;10.578;2022-09-13T06:09:50;1.30;;;1.20;;
59239;SDS011;45010;53.640;10.578;2022-09-13T06:12:50;1.30;;;1.20;;
59239;SDS011;45010;53.640;10.578;2022-09-13T06:15:51;1.60;;;1.17;;
59239;SDS011;45010;53.640;10.578;2022-09-13T06:18:53;1.25;;;1.15;;
59239;SDS011;45010;53.640;10.578;2022-09-13T06:21:53;1.30;;;1.20;;
59239;SDS011;45010;53.640;10.578;2022-09-13T06:24:53;1.50;;;1.15;;
59239;SDS011;45010;53.640;10.578;2022-09-13T06:27:53;1.23;;;1.13;;
59239;SDS011;45010;53.640;10.578;2022-09-13T06:31:01;1.40;;;1.30;;
59239;SDS011;45010;53.640;10.578;2022-09-13T06:34:02;1.65;;;1.30;;
59239;SDS011;45010;53.640;10.578;2022-09-13T06:37:03;1.45;;;1.30;;
59239;SDS011;45010;53.640;10.578;2022-09-13T06:40:04;2.58;;;1.35;;
59239;SDS011;45010;53.640;10.578;2022-09-13T06:43:05;1.50;;;1.40;;
59239;SDS011;45010;53.640;10.578;2022-09-13T06:46:07;1.35;;;1.20;;
59239;SDS011;45010;53.640;10.578;2022-09-13T06:49:09;1.77;;;1.45;;
59239;SDS011;45010;53.640;10.578;2022-09-13T06:52:09;6.38;;;1.60;;
59239;SDS011;45010;53.640;10.578;2022-09-13T06:55:10;1.70;;;1.60;;
59239;SDS011;45010;53.640;10.578;2022-09-13T06:58:10;2.10;;;1.90;;
59239;SDS011;45010;53.640;10.578;2022-09-13T07:04:12;2.70;;;2.00;;
59239;SDS011;45010;53.640;10.578;2022-09-13T07:07:18;2.50;;;1.98;;
59239;SDS011;45010;53.640;10.578;2022-09-13T07:10:18;2.00;;;1.80;;
59239;SDS011;45010;53.640;10.578;2022-09-13T07:13:18;3.20;;;2.20;;
59239;SDS011;45010;53.640;10.578;2022-09-13T07:16:20;2.30;;;1.80;;
59239;SDS011;45010;53.640;10.578;2022-09-13T07:19:23;3.13;;;1.83;;
59239;SDS011;45010;53.640;10.578;2022-09-13T07:22:28;2.35;;;2.00;;
59239;SDS011;45010;53.640;10.578;2022-09-13T07:25:28;2.15;;;1.90;;
59239;SDS011;45010;53.640;10.578;2022-09-13T07:28:29;2.00;;;1.73;;
59239;SDS011;45010;53.640;10.578;2022-09-13T07:31:33;2.50;;;1.70;;
59239;SDS011;45010;53.640;10.578;2022-09-13T07:34:35;2.83;;;1.90;;
59239;SDS011;45010;53.640;10.578;2022-09-13T07:37:36;2.53;;;2.13;;
59239;SDS011;45010;53.640;10.578;2022-09-13T07:40:36;3.00;;;1.65;;
59239;SDS011;45010;53.640;10.578;2022-09-13T07:43:36;3.70;;;2.05;;
59239;SDS011;45010;53.640;10.578;2022-09-13T07:46:37;2.42;;;1.90;;
59239;SDS011;45010;53.640;10.578;2022-09-13T07:49:42;1.73;;;1.63;;
59239;SDS011;45010;53.640;10.578;2022-09-13T07:52:42;2.00;;;1.60;;
59239;SDS011;45010;53.640;10.578;2022-09-13T07:55:43;2.58;;;1.73;;
59239;SDS011;45010;53.640;10.578;2022-09-13T07:58:43;2.47;;;1.90;;
59239;SDS011;45010;53.640;10.578;2022-09-13T08:01:47;4.68;;;2.25;;
59239;SDS011;45010;53.640;10.578;2022-09-13T08:04:49;3.42;;;1.73;;
59239;SDS011;45010;53.640;10.578;2022-09-13T08:07:49;2.20;;;1.80;;
59239;SDS011;45010;53.640;10.578;2022-09-13T08:10:49;2.17;;;1.60;;
59239;SDS011;45010;53.640;10.578;2022-09-13T08:13:50;3.17;;;1.67;;
59239;SDS011;45010;53.640;10.578;2022-09-13T08:16:54;1.55;;;1.30;;
59239;SDS011;45010;53.640;10.578;2022-09-13T08:19:55;1.90;;;1.48;;
59239;SDS011;45010;53.640;10.578;2022-09-13T08:22:56;3.22;;;1.77;;
59239;SDS011;45010;53.640;10.578;2022-09-13T08:25:59;2.70;;;1.58;;
59239;SDS011;45010;53.640;10.578;2022-09-13T08:29:02;2.60;;;1.90;;
59239;SDS011;45010;53.640;10.578;2022-09-13T08:32:05;3.08;;;1.92;;
59239;SDS011;45010;53.640;10.578;2022-09-13T08:35:05;4.28;;;1.70;;
59239;SDS011;45010;53.640;10.578;2022-09-13T08:38:06;3.55;;;2.05;;
59239;SDS011;45010;53.640;10.578;2022-09-13T08:41:23;3.35;;;1.83;;
59239;SDS011;45010;53.640;10.578;2022-09-13T08:44:48;3.25;;;1.80;;
59239;SDS011;45010;53.640;10.578;2022-09-13T08:47:57;2.70;;;1.77;;
59239;SDS011;45010;53.640;10.578;2022-09-13T08:51:04;2.97;;;1.58;;
59239;SDS011;45010;53.640;10.578;2022-09-13T08:54:09;1.95;;;1.58;;
59239;SDS011;45010;53.640;10.578;2022-09-13T08:57:19;2.70;;;1.48;;
59239;SDS011;45010;53.640;10.578;2022-09-13T09:00:52;4.32;;;1.70;;
59239;SDS011;45010;53.640;10.578;2022-09-13T09:04:20;2.63;;;1.55;;
59239;SDS011;45010;53.640;10.578;2022-09-13T09:07:27;5.63;;;1.45;;
59239;SDS011;45010;53.640;10.578;2022-09-13T09:10:45;2.88;;;1.60;;
59239;SDS011;45010;53.640;10.578;2022-09-13T09:17:05;6.07;;;1.40;;
59239;SDS011;45010;53.640;10.578;2022-09-13T09:20:30;4.90;;;1.65;;
59239;SDS011;45010;53.640;10.578;2022-09-13T09:23:36;2.90;;;1.48;;
59239;SDS011;45010;53.640;10.578;2022-09-13T09:26:40;3.92;;;1.50;;
59239;SDS011;45010;53.640;10.578;2022-09-13T09:29:40;2.67;;;1.42;;
59239;SDS011;45010;53.640;10.578;2022-09-13T09:32:51;4.57;;;1.25;;
59239;SDS011;45010;53.640;10.578;2022-09-13T09:39:25;4.47;;;1.52;;
59239;SDS011;45010;53.640;10.578;2022-09-13T09:42:32;4.28;;;1.10;;
59239;SDS011;45010;53.640;10.578;2022-09-13T09:45:39;3.20;;;1.30;;
59239;SDS011;45010;53.640;10.578;2022-09-13T09:48:45;2.50;;;1.05;;
59239;SDS011;45010;53.640;10.578;2022-09-13T09:51:51;3.83;;;1.17;;
59239;SDS011;45010;53.640;10.578;2022-09-13T09:54:53;2.97;;;0.90;;
59239;SDS011;45010;53.640;10.578;2022-09-13T09:58:00;2.97;;;0.93;;
59239;SDS011;45010;53.640;10.578;2022-09-13T10:01:03;4.72;;;1.30;;
59239;SDS011;45010;53.640;10.578;2022-09-13T10:07:21;5.28;;;0.82;;
59239;SDS011;45010;53.640;10.578;2022-09-13T10:13:55;4.38;;;1.10;;
59239;SDS011;45010;53.640;10.578;2022-09-13T10:17:31;3.95;;;0.60;;
59239;SDS011;45010;53.640;10.578;2022-09-13T10:20:25;3.60;;;0.60;;
59239;SDS011;45010;53.640;10.578;2022-09-13T10:23:26;2.72;;;0.60;;
59239;SDS011;45010;53.640;10.578;2022-09-13T10:26:27;4.50;;;1.00;;
59239;SDS011;45010;53.640;10.578;2022-09-13T10:29:32;4.13;;;1.13;;
59239;SDS011;45010;53.640;10.578;2022-09-13T10:32:32;4.30;;;0.55;;
59239;SDS011;45010;53.640;10.578;2022-09-13T10:35:33;3.00;;;0.70;;
59239;SDS011;45010;53.640;10.578;2022-09-13T10:38:35;2.08;;;0.57;;
59239;SDS011;45010;53.640;10.578;2022-09-13T10:41:38;3.65;;;0.80;;
59239;SDS011;45010;53.640;10.578;2022-09-13T10:44:45;2.80;;;0.88;;
59239;SDS011;45010;53.640;10.578;2022-09-13T10:48:05;3.50;;;0.73;;
59239;SDS011;45010;53.640;10.578;2022-09-13T10:51:32;3.95;;;0.70;;
59239;SDS011;45010;53.640;10.578;2022-09-13T10:54:37;2.60;;;0.52;;
59239;SDS011;45010;53.640;10.578;2022-09-13T10:57:37;3.33;;;0.70;;
59239;SDS011;45010;53.640;10.578;2022-09-13T11:10:31;2.22;;;0.47;;
59239;SDS011;45010;53.640;10.578;2022-09-13T11:13:43;4.40;;;0.73;;
59239;SDS011;45010;53.640;10.578;2022-09-13T11:16:58;6.38;;;0.85;;
59239;SDS011;45010;53.640;10.578;2022-09-13T11:23:36;5.82;;;0.70;;
59239;SDS011;45010;53.640;10.578;2022-09-13T11:26:59;0.95;;;0.50;;
59239;SDS011;45010;53.640;10.578;2022-09-13T11:40:27;3.85;;;0.88;;
59239;SDS011;45010;53.640;10.578;2022-09-13T11:51:17;3.45;;;0.90;;
59239;SDS011;45010;53.640;10.578;2022-09-13T11:58:03;5.65;;;0.90;;
59239;SDS011;45010;53.640;10.578;2022-09-13T12:01:09;3.38;;;0.77;;
59239;SDS011;45010;53.640;10.578;2022-09-13T12:08:09;2.35;;;0.80;;
59239;SDS011;45010;53.640;10.578;2022-09-13T12:14:29;3.35;;;1.05;;
59239;SDS011;45010;53.640;10.578;2022-09-13T12:17:43;6.50;;;0.90;;
59239;SDS011;45010;53.640;10.578;2022-09-13T12:20:51;5.38;;;0.80;;
59239;SDS011;45010;53.640;10.578;2022-09-13T12:24:10;3.30;;;0.80;;
59239;SDS011;45010;53.640;10.578;2022-09-13T12:27:37;4.22;;;0.70;;
59239;SDS011;45010;53.640;10.578;2022-09-13T12:30:40;4.13;;;0.70;;
59239;SDS011;45010;53.640;10.578;2022-09-13T12:33:43;2.47;;;0.80;;
59239;SDS011;45010;53.640;10.578;2022-09-13T12:43:49;2.42;;;0.65;;
59239;SDS011;45010;53.640;10.578;2022-09-13T12:47:15;3.25;;;0.57;;
59239;SDS011;45010;53.640;10.578;2022-09-13T13:00:16;3.65;;;0.77;;
59239;SDS011;45010;53.640;10.578;2022-09-13T13:03:20;3.85;;;0.80;;
59239;SDS011;45010;53.640;10.578;2022-09-13T13:09:38;2.70;;;0.73;;
59239;SDS011;45010;53.640;10.578;2022-09-13T13:12:42;4.38;;;0.85;;
59239;SDS011;45010;53.640;10.578;2022-09-13T13:18:44;2.80;;;0.77;;
59239;SDS011;45010;53.640;10.578;2022-09-13T13:21:47;3.75;;;0.73;;
59239;SDS011;45010;53.640;10.578;2022-09-13T13:24:47;2.15;;;0.95;;
59239;SDS011;45010;53.640;10.578;2022-09-13T13:27:48;3.42;;;0.82;;
59239;SDS011;45010;53.640;10.578;2022-09-13T13:30:51;3.00;;;0.60;;
59239;SDS011;45010;53.640;10.578;2022-09-13T13:40:20;2.08;;;0.75;;
59239;SDS011;45010;53.640;10.578;2022-09-13T13:43:30;2.10;;;0.82;;
59239;SDS011;45010;53.640;10.578;2022-09-13T13:46:32;2.08;;;0.70;;
59239;SDS011;45010;53.640;10.578;2022-09-13T13:52:38;2.15;;;0.50;;
59239;SDS011;45010;53.640;10.578;2022-09-13T13:56:03;2.33;;;0.60;;
59239;SDS011;45010;53.640;10.578;2022-09-13T13:59:35;3.47;;;0.65;;
59239;SDS011;45010;53.640;10.578;2022-09-13T14:05:50;1.70;;;0.60;;
59239;SDS011;45010;53.640;10.578;2022-09-13T14:09:18;1.50;;;0.50;;
59239;SDS011;45010;53.640;10.578;2022-09-13T14:22:32;3.70;;;0.50;;
59239;SDS011;45010;53.640;10.578;2022-09-13T14:25:32;3.05;;;0.93;;
59239;SDS011;45010;53.640;10.578;2022-09-13T14:28:33;4.88;;;1.08;;
59239;SDS011;45010;53.640;10.578;2022-09-13T14:31:33;0.98;;;0.50;;
59239;SDS011;45010;53.640;10.578;2022-09-13T14:34:35;3.05;;;0.73;;
59239;SDS011;45010;53.640;10.578;2022-09-13T14:37:37;2.58;;;0.50;;
59239;SDS011;45010;53.640;10.578;2022-09-13T14:40:39;3.55;;;0.57;;
59239;SDS011;45010;53.640;10.578;2022-09-13T14:43:39;1.70;;;0.50;;
59239;SDS011;45010;53.640;10.578;2022-09-13T14:46:41;2.88;;;0.75;;
59239;SDS011;45010;53.640;10.578;2022-09-13T14:49:45;3.03;;;0.40;;
59239;SDS011;45010;53.640;10.578;2022-09-13T14:59:17;3.03;;;0.60;;
59239;SDS011;45010;53.640;10.578;2022-09-13T15:02:36;1.35;;;0.43;;
59239;SDS011;45010;53.640;10.578;2022-09-13T15:05:38;3.58;;;0.57;;
59239;SDS011;45010;53.640;10.578;2022-09-13T15:08:46;1.13;;;0.50;;
59239;SDS011;45010;53.640;10.578;2022-09-13T15:18:35;2.83;;;0.60;;
59239;SDS011;45010;53.640;10.578;2022-09-13T15:21:35;2.55;;;0.63;;
59239;SDS011;45010;53.640;10.578;2022-09-13T15:24:36;4.68;;;0.82;;
59239;SDS011;45010;53.640;10.578;2022-09-13T15:27:44;3.40;;;0.73;;
59239;SDS011;45010;53.640;10.578;2022-09-13T15:30:47;3.35;;;0.50;;
59239;SDS011;45010;53.640;10.578;2022-09-13T15:33:48;4.28;;;0.63;;
59239;SDS011;45010;53.640;10.578;2022-09-13T15:36:49;3.50;;;0.70;;
59239;SDS011;45010;53.640;10.578;2022-09-13T15:40:09;3.20;;;0.65;;
59239;SDS011;45010;53.640;10.578;2022-09-13T15:43:13;1.35;;;0.50;;
59239;SDS011;45010;53.640;10.578;2022-09-13T15:46:14;3.63;;;0.50;;
59239;SDS011;45010;53.640;10.578;2022-09-13T15:49:16;1.35;;;0.40;;
59239;SDS011;45010;53.640;10.578;2022-09-13T15:52:18;2.28;;;0.40;;
59239;SDS011;45010;53.640;10.578;2022-09-13T15:55:19;3.67;;;0.50;;
59239;SDS011;45010;53.640;10.578;2022-09-13T15:58:20;1.60;;;0.45;;
59239;SDS011;45010;53.640;10.578;2022-09-13T16:01:20;6.07;;;0.60;;
59239;SDS011;45010;53.640;10.578;2022-09-13T16:04:21;3.13;;;0.70;;
59239;SDS011;45010;53.640;10.578;2022-09-13T16:07:21;3.40;;;0.52;;
59239;SDS011;45010;53.640;10.578;2022-09-13T16:10:22;6.82;;;0.82;;
59239;SDS011;45010;53.640;10.578;2022-09-13T16:13:22;2.63;;;0.90;;
59239;SDS011;45010;53.640;10.578;2022-09-13T16:16:23;4.72;;;1.25;;
59239;SDS011;45010;53.640;10.578;2022-09-13T16:19:23;5.22;;;1.70;;
59239;SDS011;45010;53.640;10.578;2022-09-13T16:22:24;7.30;;;3.20;;
59239;SDS011;45010;53.640;10.578;2022-09-13T16:25:24;6.35;;;2.53;;
59239;SDS011;45010;53.640;10.578;2022-09-13T16:28:25;6.65;;;3.28;;
59239;SDS011;45010;53.640;10.578;2022-09-13T16:31:25;6.55;;;3.00;;
59239;SDS011;45010;53.640;10.578;2022-09-13T16:34:26;7.72;;;3.70;;
59239;SDS011;45010;53.640;10.578;2022-09-13T16:37:26;9.15;;;3.50;;
59239;SDS011;45010;53.640;10.578;2022-09-13T16:40:26;5.78;;;3.00;;
59239;SDS011;45010;53.640;10.578;2022-09-13T16:43:27;5.97;;;2.95;;
59239;SDS011;45010;53.640;10.578;2022-09-13T16:46:27;6.57;;;2.97;;
59239;SDS011;45010;53.640;10.578;2022-09-13T16:49:27;5.40;;;2.60;;
59239;SDS011;45010;53.640;10.578;2022-09-13T16:52:28;6.70;;;2.80;;
59239;SDS011;45010;53.640;10.578;2022-09-13T16:55:28;5.88;;;2.50;;
59239;SDS011;45010;53.640;10.578;2022-09-13T16:58:29;4.18;;;2.00;;
59239;SDS011;45010;53.640;10.578;2022-09-13T17:01:29;5.15;;;2.30;;
59239;SDS011;45010;53.640;10.578;2022-09-13T17:04:29;4.68;;;2.30;;
59239;SDS011;45010;53.640;10.578;2022-09-13T17:07:30;4.57;;;1.63;;
59239;SDS011;45010;53.640;10.578;2022-09-13T17:10:31;5.53;;;2.20;;
59239;SDS011;45010;53.640;10.578;2022-09-13T17:13:31;3.25;;;1.60;;
59239;SDS011;45010;53.640;10.578;2022-09-13T17:16:42;5.32;;;1.92;;
59239;SDS011;45010;53.640;10.578;2022-09-13T17:19:45;3.88;;;1.65;;
59239;SDS011;45010;53.640;10.578;2022-09-13T17:22:45;5.18;;;1.67;;
59239;SDS011;45010;53.640;10.578;2022-09-13T17:25:47;3.40;;;1.20;;
59239;SDS011;45010;53.640;10.578;2022-09-13T17:28:48;2.97;;;1.15;;
59239;SDS011;45010;53.640;10.578;2022-09-13T17:31:48;5.78;;;1.70;;
59239;SDS011;45010;53.640;10.578;2022-09-13T17:34:48;2.25;;;1.20;;
59239;SDS011;45010;53.640;10.578;2022-09-13T17:37:49;5.47;;;1.25;;
59239;SDS011;45010;53.640;10.578;2022-09-13T17:40:59;3.53;;;1.13;;
59239;SDS011;45010;53.640;10.578;2022-09-13T17:44:00;3.20;;;1.10;;
59239;SDS011;45010;53.640;10.578;2022-09-13T17:47:00;2.92;;;1.00;;
59239;SDS011;45010;53.640;10.578;2022-09-13T17:50:01;3.95;;;1.08;;
59239;SDS011;45010;53.640;10.578;2022-09-13T17:53:01;1.85;;;0.80;;
59239;SDS011;45010;53.640;10.578;2022-09-13T17:56:03;3.05;;;1.25;;
59239;SDS011;45010;53.640;10.578;2022-09-13T18:02:05;3.10;;;0.93;;
59239;SDS011;45010;53.640;10.578;2022-09-13T18:05:05;1.73;;;0.80;;
59239;SDS011;45010;53.640;10.578;2022-09-13T18:08:06;2.85;;;1.02;;
59239;SDS011;45010;53.640;10.578;2022-09-13T18:11:08;2.38;;;0.98;;
59239;SDS011;45010;53.640;10.578;2022-09-13T18:14:14;2.92;;;0.98;;
59239;SDS011;45010;53.640;10.578;2022-09-13T18:17:16;3.92;;;1.00;;
59239;SDS011;45010;53.640;10.578;2022-09-13T18:20:16;1.70;;;1.00;;
59239;SDS011;45010;53.640;10.578;2022-09-13T18:23:17;1.75;;;0.52;;
59239;SDS011;45010;53.640;10.578;2022-09-13T18:26:21;2.25;;;0.60;;
59239;SDS011;45010;53.640;10.578;2022-09-13T18:29:22;1.33;;;0.60;;
59239;SDS011;45010;53.640;10.578;2022-09-13T18:32:22;2.55;;;0.70;;
59239;SDS011;45010;53.640;10.578;2022-09-13T18:35:23;2.17;;;0.80;;
59239;SDS011;45010;53.640;10.578;2022-09-13T18:38:24;4.00;;;0.77;;
59239;SDS011;45010;53.640;10.578;2022-09-13T18:41:25;1.42;;;0.60;;
59239;SDS011;45010;53.640;10.578;2022-09-13T18:44:26;1.08;;;0.70;;
59239;SDS011;45010;53.640;10.578;2022-09-13T18:47:29;2.47;;;0.60;;
59239;SDS011;45010;53.640;10.578;2022-09-13T18:50:30;0.93;;;0.40;;
59239;SDS011;45010;53.640;10.578;2022-09-13T18:53:32;2.80;;;0.80;;
59239;SDS011;45010;53.640;10.578;2022-09-13T18:56:34;2.60;;;0.63;;
59239;SDS011;45010;53.640;10.578;2022-09-13T18:59:34;1.40;;;0.50;;
59239;SDS011;45010;53.640;10.578;2022-09-13T19:02:35;1.25;;;0.68;;
59239;SDS011;45010;53.640;10.578;2022-09-13T19:05:36;2.33;;;0.65;;
59239;SDS011;45010;53.640;10.578;2022-09-13T19:08:38;1.58;;;0.50;;
59239;SDS011;45010;53.640;10.578;2022-09-13T19:11:40;0.80;;;0.40;;
59239;SDS011;45010;53.640;10.578;2022-09-13T19:14:42;2.28;;;0.63;;
59239;SDS011;45010;53.640;10.578;2022-09-13T19:17:43;2.30;;;0.40;;
59239;SDS011;45010;53.640;10.578;2022-09-13T19:20:43;1.20;;;0.40;;
59239;SDS011;45010;53.640;10.578;2022-09-13T19:23:44;1.83;;;0.68;;
59239;SDS011;45010;53.640;10.578;2022-09-13T19:26:47;0.95;;;0.40;;
59239;SDS011;45010;53.640;10.578;2022-09-13T19:29:49;2.42;;;0.55;;
59239;SDS011;45010;53.640;10.578;2022-09-13T19:32:50;0.90;;;0.50;;
59239;SDS011;45010;53.640;10.578;2022-09-13T19:35:51;2.63;;;0.45;;
59239;SDS011;45010;53.640;10.578;2022-09-13T19:38:52;2.22;;;0.38;;
59239;SDS011;45010;53.640;10.578;2022-09-13T19:41:53;2.45;;;0.50;;
59239;SDS011;45010;53.640;10.578;2022-09-13T19:44:54;1.02;;;0.40;;
59239;SDS011;45010;53.640;10.578;2022-09-13T19:47:54;1.58;;;0.60;;
59239;SDS011;45010;53.640;10.578;2022-09-13T19:50:55;2.08;;;0.40;;
59239;SDS011;45010;53.640;10.578;2022-09-13T19:53:56;1.73;;;0.68;;
59239;SDS011;45010;53.640;10.578;2022-09-13T19:56:57;1.98;;;0.47;;
59239;SDS011;45010;53.640;10.578;2022-09-13T19:59:59;0.77;;;0.32;;
59239;SDS011;45010;53.640;10.578;2022-09-13T20:02:59;1.00;;;0.40;;
59239;SDS011;45010;53.640;10.578;2022-09-13T20:06:00;1.98;;;0.40;;
59239;SDS011;45010;53.640;10.578;2022-09-13T20:09:02;1.75;;;0.43;;
59239;SDS011;45010;53.640;10.578;2022-09-13T20:12:03;1.38;;;0.40;;
59239;SDS011;45010;53.640;10.578;2022-09-13T20:15:06;1.33;;;0.60;;
59239;SDS011;45010;53.640;10.578;2022-09-13T20:18:07;0.88;;;0.40;;
59239;SDS011;45010;53.640;10.578;2022-09-13T20:21:12;2.08;;;0.40;;
59239;SDS011;45010;53.640;10.578;2022-09-13T20:24:13;2.15;;;0.75;;
59239;SDS011;45010;53.640;10.578;2022-09-13T20:27:13;0.82;;;0.30;;
59239;SDS011;45010;53.640;10.578;2022-09-13T20:30:14;0.93;;;0.38;;
59239;SDS011;45010;53.640;10.578;2022-09-13T20:33:14;1.95;;;0.50;;
59239;SDS011;45010;53.640;10.578;2022-09-13T20:36:15;0.90;;;0.30;;
59239;SDS011;45010;53.640;10.578;2022-09-13T20:39:15;1.33;;;0.43;;
59239;SDS011;45010;53.640;10.578;2022-09-13T20:42:16;1.05;;;0.50;;
59239;SDS011;45010;53.640;10.578;2022-09-13T20:45:16;0.50;;;0.30;;
59239;SDS011;45010;53.640;10.578;2022-09-13T20:48:17;2.08;;;0.40;;